sensor_id;sensor_type;location;lat;lon;timestamp;pressure;altitude;pressure_sealevel;temperature;humidity
45327;BME280;31062;49.678;24.560;2023-05-11T00:00:45;98742.03;;;7.34;58.82
45327;BME280;31062;49.678;24.560;2023-05-11T00:03:30;98621.97;;;6.48;58.88
45327;BME280;31062;49.678;24.560;2023-05-11T00:06:17;98549.81;;;6.00;58.63
45327;BME280;31062;49.678;24.560;2023-05-11T00:09:02;98696.41;;;6.76;58.60
45327;BME280;31062;49.678;24.560;2023-05-11T00:11:47;98546.78;;;5.91;58.88
45327;BME280;31062;49.678;24.560;2023-05-11T00:14:33;98558.94;;;5.95;59.04
45327;BME280;31062;49.678;24.560;2023-05-11T00:17:18;98745.44;;;7.19;59.05
45327;BME280;31062;49.678;24.560;2023-05-11T00:20:05;98754.25;;;7.18;58.72
45327;BME280;31062;49.678;24.560;2023-05-11T00:22:51;98560.00;;;5.92;58.97
45327;BME280;31062;49.678;24.560;2023-05-11T00:25:37;98660.06;;;6.57;58.58
45327;BME280;31062;49.678;24.560;2023-05-11T00:28:23;98721.19;;;6.97;59.17
45327;BME280;31062;49.678;24.560;2023-05-11T00:31:08;98748.66;;;7.10;58.98
45327;BME280;31062;49.678;24.560;2023-05-11T00:33:54;98740.16;;;7.01;59.32
45327;BME280;31062;49.678;24.560;2023-05-11T00:36:40;98697.06;;;6.69;59.56
45327;BME280;31062;49.678;24.560;2023-05-11T00:39:26;98759.22;;;6.98;59.49
45327;BME280;31062;49.678;24.560;2023-05-11T00:42:12;98752.25;;;6.97;59.07
45327;BME280;31062;49.678;24.560;2023-05-11T00:44:57;98592.16;;;5.84;59.32
45327;BME280;31062;49.678;24.560;2023-05-11T00:47:43;98551.22;;;5.60;58.85
45327;BME280;31062;49.678;24.560;2023-05-11T00:50:29;98745.13;;;6.81;58.68
45327;BME280;31062;49.678;24.560;2023-05-11T00:53:15;98555.06;;;5.44;57.94
45327;BME280;31062;49.678;24.560;2023-05-11T00:56:01;98770.59;;;6.74;58.00
45327;BME280;31062;49.678;24.560;2023-05-11T00:58:47;98778.81;;;6.67;58.08
45327;BME280;31062;49.678;24.560;2023-05-11T01:01:32;98593.94;;;5.61;57.92
45327;BME280;31062;49.678;24.560;2023-05-11T01:04:19;98709.44;;;6.34;58.41
45327;BME280;31062;49.678;24.560;2023-05-11T01:07:12;98539.38;;;5.18;58.30
45327;BME280;31062;49.678;24.560;2023-05-11T01:13:09;98751.44;;;6.48;59.45
45327;BME280;31062;49.678;24.560;2023-05-11T01:16:01;98776.00;;;6.46;59.37
45327;BME280;31062;49.678;24.560;2023-05-11T01:18:52;98732.81;;;6.41;59.81
45327;BME280;31062;49.678;24.560;2023-05-11T01:21:40;98727.34;;;6.28;59.95
45327;BME280;31062;49.678;24.560;2023-05-11T01:33:30;98792.69;;;6.27;60.86
45327;BME280;31062;49.678;24.560;2023-05-11T01:36:18;98740.88;;;6.26;60.99
45327;BME280;31062;49.678;24.560;2023-05-11T01:39:07;98706.13;;;6.02;61.05
45327;BME280;31062;49.678;24.560;2023-05-11T01:41:54;98693.97;;;5.97;61.18
45327;BME280;31062;49.678;24.560;2023-05-11T01:44:43;98541.41;;;4.91;60.70
45327;BME280;31062;49.678;24.560;2023-05-11T01:47:34;98539.81;;;4.96;60.92
45327;BME280;31062;49.678;24.560;2023-05-11T01:50:24;98706.47;;;5.98;60.18
45327;BME280;31062;49.678;24.560;2023-05-11T01:53:11;98699.91;;;6.01;59.51
45327;BME280;31062;49.678;24.560;2023-05-11T01:55:58;98582.19;;;5.13;59.75
45327;BME280;31062;49.678;24.560;2023-05-11T01:58:45;98578.41;;;5.03;59.36
45327;BME280;31062;49.678;24.560;2023-05-11T02:01:35;98552.63;;;4.67;60.16
45327;BME280;31062;49.678;24.560;2023-05-11T02:04:22;98744.69;;;5.89;60.70
45327;BME280;31062;49.678;24.560;2023-05-11T02:07:10;98558.44;;;4.63;61.53
45327;BME280;31062;49.678;24.560;2023-05-11T02:09:58;98740.03;;;5.84;61.81
45327;BME280;31062;49.678;24.560;2023-05-11T02:12:45;98705.56;;;5.56;61.63
45327;BME280;31062;49.678;24.560;2023-05-11T02:15:43;98692.31;;;5.55;61.76
45327;BME280;31062;49.678;24.560;2023-05-11T02:18:30;98699.75;;;5.60;61.41
45327;BME280;31062;49.678;24.560;2023-05-11T02:21:17;98452.47;;;3.89;60.69
45327;BME280;31062;49.678;24.560;2023-05-11T02:24:05;98686.41;;;5.51;60.96
45327;BME280;31062;49.678;24.560;2023-05-11T02:26:50;98531.91;;;4.26;60.57
45327;BME280;31062;49.678;24.560;2023-05-11T02:29:36;98548.03;;;4.30;60.64
45327;BME280;31062;49.678;24.560;2023-05-11T02:32:22;98594.25;;;4.58;60.68
45327;BME280;31062;49.678;24.560;2023-05-11T02:35:18;98543.72;;;4.21;60.71
45327;BME280;31062;49.678;24.560;2023-05-11T02:38:06;98647.91;;;4.72;61.35
45327;BME280;31062;49.678;24.560;2023-05-11T02:40:56;98754.13;;;5.54;61.66
45327;BME280;31062;49.678;24.560;2023-05-11T02:43:45;98597.25;;;4.41;61.72
45327;BME280;31062;49.678;24.560;2023-05-11T02:46:33;98738.03;;;5.45;61.44
45327;BME280;31062;49.678;24.560;2023-05-11T02:49:22;98724.06;;;5.29;61.32
45327;BME280;31062;49.678;24.560;2023-05-11T02:52:10;98570.91;;;4.06;60.97
45327;BME280;31062;49.678;24.560;2023-05-11T02:55:02;98741.72;;;5.34;61.65
45327;BME280;31062;49.678;24.560;2023-05-11T02:57:49;98663.16;;;4.86;61.46
45327;BME280;31062;49.678;24.560;2023-05-11T03:00:34;98564.88;;;4.07;61.44
45327;BME280;31062;49.678;24.560;2023-05-11T03:03:20;98559.72;;;4.04;61.50
45327;BME280;31062;49.678;24.560;2023-05-11T03:06:06;98578.94;;;4.17;61.51
45327;BME280;31062;49.678;24.560;2023-05-11T03:08:51;98753.69;;;5.23;61.45
45327;BME280;31062;49.678;24.560;2023-05-11T03:11:37;98744.59;;;5.42;61.41
45327;BME280;31062;49.678;24.560;2023-05-11T03:14:23;98596.09;;;4.36;60.93
45327;BME280;31062;49.678;24.560;2023-05-11T03:17:11;98553.41;;;4.09;60.80
45327;BME280;31062;49.678;24.560;2023-05-11T03:19:57;98545.47;;;4.05;60.98
45327;BME280;31062;49.678;24.560;2023-05-11T03:22:45;98513.22;;;3.80;61.17
45327;BME280;31062;49.678;24.560;2023-05-11T03:25:31;98644.50;;;4.66;60.70
45327;BME280;31062;49.678;24.560;2023-05-11T03:28:18;98751.66;;;5.50;61.06
45327;BME280;31062;49.678;24.560;2023-05-11T03:31:14;98723.84;;;5.27;61.02
45327;BME280;31062;49.678;24.560;2023-05-11T03:33:59;98738.63;;;5.24;61.50
45327;BME280;31062;49.678;24.560;2023-05-11T03:36:49;98711.59;;;5.15;61.22
45327;BME280;31062;49.678;24.560;2023-05-11T03:39:35;98701.84;;;5.14;62.21
45327;BME280;31062;49.678;24.560;2023-05-11T03:42:24;98774.09;;;5.54;62.47
45327;BME280;31062;49.678;24.560;2023-05-11T03:45:12;98636.81;;;4.64;63.78
45327;BME280;31062;49.678;24.560;2023-05-11T03:48:02;98768.28;;;5.45;64.49
45327;BME280;31062;49.678;24.560;2023-05-11T03:50:50;98775.38;;;5.40;65.20
45327;BME280;31062;49.678;24.560;2023-05-11T03:53:37;98717.22;;;4.78;65.77
45327;BME280;31062;49.678;24.560;2023-05-11T03:56:23;98787.53;;;5.45;65.98
45327;BME280;31062;49.678;24.560;2023-05-11T03:59:14;98674.19;;;4.67;65.88
45327;BME280;31062;49.678;24.560;2023-05-11T04:01:59;98775.69;;;5.63;65.69
45327;BME280;31062;49.678;24.560;2023-05-11T04:04:46;98785.22;;;5.75;65.49
45327;BME280;31062;49.678;24.560;2023-05-11T04:07:32;98772.31;;;5.83;65.33
45327;BME280;31062;49.678;24.560;2023-05-11T04:10:19;98779.41;;;5.92;65.33
45327;BME280;31062;49.678;24.560;2023-05-11T04:13:04;98618.88;;;4.89;65.25
45327;BME280;31062;49.678;24.560;2023-05-11T04:15:50;98774.84;;;6.07;65.15
45327;BME280;31062;49.678;24.560;2023-05-11T04:18:39;98785.63;;;6.19;64.85
45327;BME280;31062;49.678;24.560;2023-05-11T04:21:27;98785.56;;;6.32;64.80
45327;BME280;31062;49.678;24.560;2023-05-11T04:24:14;98680.28;;;5.58;65.20
45327;BME280;31062;49.678;24.560;2023-05-11T04:27:01;98589.38;;;5.03;65.56
45327;BME280;31062;49.678;24.560;2023-05-11T04:29:46;98798.69;;;6.39;65.67
45327;BME280;31062;49.678;24.560;2023-05-11T04:32:34;98758.72;;;6.11;65.68
45327;BME280;31062;49.678;24.560;2023-05-11T04:35:19;98794.75;;;6.47;65.96
45327;BME280;31062;49.678;24.560;2023-05-11T04:38:06;98792.03;;;6.68;65.50
45327;BME280;31062;49.678;24.560;2023-05-11T04:40:51;98715.94;;;6.24;64.82
45327;BME280;31062;49.678;24.560;2023-05-11T04:43:37;98666.97;;;6.30;62.54
45327;BME280;31062;49.678;24.560;2023-05-11T04:46:25;98759.69;;;7.31;60.36
45327;BME280;31062;49.678;24.560;2023-05-11T04:49:12;98674.78;;;7.09;57.92
45327;BME280;31062;49.678;24.560;2023-05-11T04:51:58;98792.41;;;8.27;55.84
45327;BME280;31062;49.678;24.560;2023-05-11T04:54:43;98822.59;;;8.69;54.18
45327;BME280;31062;49.678;24.560;2023-05-11T04:57:29;98783.75;;;9.12;52.88
45327;BME280;31062;49.678;24.560;2023-05-11T05:00:15;98793.88;;;9.55;51.28
45327;BME280;31062;49.678;24.560;2023-05-11T05:03:02;98673.13;;;9.20;50.73
45327;BME280;31062;49.678;24.560;2023-05-11T05:05:47;98785.34;;;10.39;49.63
45327;BME280;31062;49.678;24.560;2023-05-11T05:08:33;98620.97;;;9.64;48.63
45327;BME280;31062;49.678;24.560;2023-05-11T05:11:19;98687.84;;;10.33;47.46
45327;BME280;31062;49.678;24.560;2023-05-11T05:14:06;98603.69;;;10.20;45.93
45327;BME280;31062;49.678;24.560;2023-05-11T05:16:51;98792.56;;;11.73;45.09
45327;BME280;31062;49.678;24.560;2023-05-11T05:19:39;98629.44;;;10.80;43.73
45327;BME280;31062;49.678;24.560;2023-05-11T05:22:25;98798.34;;;12.19;44.34
45327;BME280;31062;49.678;24.560;2023-05-11T05:25:11;98742.03;;;12.02;44.23
45327;BME280;31062;49.678;24.560;2023-05-11T05:27:56;98794.09;;;12.62;43.11
45327;BME280;31062;49.678;24.560;2023-05-11T05:30:43;98788.31;;;12.78;43.10
45327;BME280;31062;49.678;24.560;2023-05-11T05:33:28;98715.09;;;12.39;42.65
45327;BME280;31062;49.678;24.560;2023-05-11T05:36:13;98628.25;;;12.04;42.66
45327;BME280;31062;49.678;24.560;2023-05-11T05:38:59;98665.63;;;12.47;41.28
45327;BME280;31062;49.678;24.560;2023-05-11T05:41:46;98802.53;;;13.55;40.21
45327;BME280;31062;49.678;24.560;2023-05-11T05:44:31;98779.69;;;13.46;40.13
45327;BME280;31062;49.678;24.560;2023-05-11T05:47:17;98670.63;;;12.85;39.29
45327;BME280;31062;49.678;24.560;2023-05-11T05:50:02;98644.53;;;12.80;39.81
45327;BME280;31062;49.678;24.560;2023-05-11T05:52:48;98796.28;;;14.02;39.14
45327;BME280;31062;49.678;24.560;2023-05-11T05:55:33;98633.31;;;12.97;37.72
45327;BME280;31062;49.678;24.560;2023-05-11T05:58:20;98636.38;;;13.11;37.48
45327;BME280;31062;49.678;24.560;2023-05-11T06:01:06;98729.84;;;13.79;37.48
45327;BME280;31062;49.678;24.560;2023-05-11T06:03:52;98641.72;;;13.26;36.74
45327;BME280;31062;49.678;24.560;2023-05-11T06:06:39;98813.06;;;14.41;37.08
45327;BME280;31062;49.678;24.560;2023-05-11T06:09:24;98670.63;;;13.40;36.13
45327;BME280;31062;49.678;24.560;2023-05-11T06:12:10;98795.44;;;14.48;35.46
45327;BME280;31062;49.678;24.560;2023-05-11T06:15:01;98767.81;;;14.32;35.71
45327;BME280;31062;49.678;24.560;2023-05-11T06:17:49;98804.78;;;14.62;36.00
45327;BME280;31062;49.678;24.560;2023-05-11T06:20:35;98726.75;;;14.04;36.31
45327;BME280;31062;49.678;24.560;2023-05-11T06:23:22;98774.84;;;14.53;36.77
45327;BME280;31062;49.678;24.560;2023-05-11T06:26:09;98803.28;;;14.80;35.92
45327;BME280;31062;49.678;24.560;2023-05-11T06:28:56;98803.84;;;14.88;37.13
45327;BME280;31062;49.678;24.560;2023-05-11T06:31:42;98787.84;;;14.89;35.42
45327;BME280;31062;49.678;24.560;2023-05-11T06:34:28;98637.44;;;13.93;34.51
45327;BME280;31062;49.678;24.560;2023-05-11T06:37:14;98806.88;;;15.02;34.49
45327;BME280;31062;49.678;24.560;2023-05-11T06:40:07;98791.31;;;14.99;34.41
45327;BME280;31062;49.678;24.560;2023-05-11T06:42:53;98780.69;;;14.76;33.69
45327;BME280;31062;49.678;24.560;2023-05-11T06:45:39;98627.91;;;13.86;33.51
45327;BME280;31062;49.678;24.560;2023-05-11T06:48:26;98812.34;;;15.00;34.54
45327;BME280;31062;49.678;24.560;2023-05-11T06:51:16;98633.47;;;13.86;34.36
45327;BME280;31062;49.678;24.560;2023-05-11T06:54:01;98799.38;;;15.04;33.70
45327;BME280;31062;49.678;24.560;2023-05-11T06:56:47;98693.72;;;14.29;33.41
45327;BME280;31062;49.678;24.560;2023-05-11T06:59:32;98715.66;;;14.54;33.95
45327;BME280;31062;49.678;24.560;2023-05-11T07:02:17;98786.19;;;14.95;34.21
45327;BME280;31062;49.678;24.560;2023-05-11T07:05:03;98743.81;;;14.68;32.83
45327;BME280;31062;49.678;24.560;2023-05-11T07:07:48;98684.75;;;14.41;31.95
45327;BME280;31062;49.678;24.560;2023-05-11T07:10:34;98764.72;;;14.98;31.43
45327;BME280;31062;49.678;24.560;2023-05-11T07:13:20;98818.88;;;15.14;31.76
45327;BME280;31062;49.678;24.560;2023-05-11T07:16:06;98809.69;;;15.33;31.59
45327;BME280;31062;49.678;24.560;2023-05-11T07:18:51;98675.06;;;14.42;32.67
45327;BME280;31062;49.678;24.560;2023-05-11T07:21:38;98684.06;;;14.61;31.87
45327;BME280;31062;49.678;24.560;2023-05-11T07:24:23;98801.22;;;15.52;31.75
45327;BME280;31062;49.678;24.560;2023-05-11T07:27:09;98679.19;;;14.72;32.51
45327;BME280;31062;49.678;24.560;2023-05-11T07:29:55;98773.00;;;15.48;31.97
45327;BME280;31062;49.678;24.560;2023-05-11T07:32:41;98774.59;;;15.51;32.03
45327;BME280;31062;49.678;24.560;2023-05-11T07:35:26;98799.91;;;15.74;31.63
45327;BME280;31062;49.678;24.560;2023-05-11T07:38:11;98679.28;;;14.83;32.05
45327;BME280;31062;49.678;24.560;2023-05-11T07:40:58;98755.69;;;15.40;32.55
45327;BME280;31062;49.678;24.560;2023-05-11T07:43:43;98815.63;;;15.79;33.02
45327;BME280;31062;49.678;24.560;2023-05-11T07:46:29;98797.53;;;15.80;32.01
45327;BME280;31062;49.678;24.560;2023-05-11T07:49:15;98772.38;;;15.59;32.42
45327;BME280;31062;49.678;24.560;2023-05-11T07:52:12;98668.47;;;14.99;31.91
45327;BME280;31062;49.678;24.560;2023-05-11T07:54:57;98800.28;;;15.90;31.74
45327;BME280;31062;49.678;24.560;2023-05-11T07:57:43;98638.47;;;14.78;31.79
45327;BME280;31062;49.678;24.560;2023-05-11T08:00:29;98763.06;;;15.66;31.93
45327;BME280;31062;49.678;24.560;2023-05-11T08:03:15;98773.69;;;15.79;31.38
45327;BME280;31062;49.678;24.560;2023-05-11T08:06:00;98801.91;;;16.05;31.04
45327;BME280;31062;49.678;24.560;2023-05-11T08:08:46;98653.94;;;15.00;31.45
45327;BME280;31062;49.678;24.560;2023-05-11T08:11:31;98800.72;;;16.08;31.49
45327;BME280;31062;49.678;24.560;2023-05-11T08:14:18;98714.53;;;15.62;31.17
45327;BME280;31062;49.678;24.560;2023-05-11T08:17:05;98646.94;;;15.11;31.99
45327;BME280;31062;49.678;24.560;2023-05-11T08:19:51;98800.44;;;16.25;32.61
45327;BME280;31062;49.678;24.560;2023-05-11T08:22:36;98642.22;;;15.35;32.27
45327;BME280;31062;49.678;24.560;2023-05-11T08:25:22;98787.84;;;16.47;32.64
45327;BME280;31062;49.678;24.560;2023-05-11T08:28:08;98640.66;;;15.53;32.37
45327;BME280;31062;49.678;24.560;2023-05-11T08:30:57;98754.19;;;16.24;31.57
45327;BME280;31062;49.678;24.560;2023-05-11T08:33:44;98789.84;;;16.56;30.08
45327;BME280;31062;49.678;24.560;2023-05-11T08:36:29;98709.50;;;16.03;31.07
45327;BME280;31062;49.678;24.560;2023-05-11T08:39:15;98618.00;;;15.49;30.88
45327;BME280;31062;49.678;24.560;2023-05-11T08:42:17;98780.63;;;16.65;31.25
45327;BME280;31062;49.678;24.560;2023-05-11T08:45:04;98663.38;;;15.92;31.79
45327;BME280;31062;49.678;24.560;2023-05-11T08:47:52;98777.09;;;16.77;32.45
45327;BME280;31062;49.678;24.560;2023-05-11T08:50:38;98787.47;;;16.86;32.03
45327;BME280;31062;49.678;24.560;2023-05-11T08:53:24;98790.88;;;16.84;30.64
45327;BME280;31062;49.678;24.560;2023-05-11T08:56:10;98729.47;;;16.53;31.60
45327;BME280;31062;49.678;24.560;2023-05-11T08:58:56;98738.25;;;16.59;31.97
45327;BME280;31062;49.678;24.560;2023-05-11T09:01:42;98734.59;;;16.68;31.89
45327;BME280;31062;49.678;24.560;2023-05-11T09:04:28;98643.03;;;16.13;31.82
45327;BME280;31062;49.678;24.560;2023-05-11T09:07:15;98598.47;;;15.93;31.98
45327;BME280;31062;49.678;24.560;2023-05-11T09:10:04;98776.75;;;17.17;31.04
45327;BME280;31062;49.678;24.560;2023-05-11T09:12:51;98779.56;;;17.17;30.58
45327;BME280;31062;49.678;24.560;2023-05-11T09:15:36;98599.81;;;16.04;30.33
45327;BME280;31062;49.678;24.560;2023-05-11T09:18:23;98772.41;;;17.14;30.40
45327;BME280;31062;49.678;24.560;2023-05-11T09:21:08;98759.00;;;17.01;30.96
45327;BME280;31062;49.678;24.560;2023-05-11T09:23:58;98610.78;;;16.00;31.09
45327;BME280;31062;49.678;24.560;2023-05-11T09:26:43;98730.97;;;16.89;31.17
45327;BME280;31062;49.678;24.560;2023-05-11T09:29:29;98512.53;;;15.49;31.52
45327;BME280;31062;49.678;24.560;2023-05-11T09:32:15;98729.16;;;16.94;30.68
45327;BME280;31062;49.678;24.560;2023-05-11T09:35:17;98693.25;;;16.79;30.80
45327;BME280;31062;49.678;24.560;2023-05-11T09:38:10;98713.69;;;16.93;30.13
45327;BME280;31062;49.678;24.560;2023-05-11T09:40:55;98598.50;;;16.17;30.39
45327;BME280;31062;49.678;24.560;2023-05-11T09:43:40;98603.38;;;16.16;30.48
45327;BME280;31062;49.678;24.560;2023-05-11T09:46:26;98639.28;;;16.43;29.41
45327;BME280;31062;49.678;24.560;2023-05-11T09:49:11;98613.38;;;16.31;30.22
45327;BME280;31062;49.678;24.560;2023-05-11T09:51:59;98593.16;;;16.21;30.06
45327;BME280;31062;49.678;24.560;2023-05-11T09:54:47;98596.31;;;16.15;29.92
45327;BME280;31062;49.678;24.560;2023-05-11T09:57:34;98754.13;;;17.25;29.92
45327;BME280;31062;49.678;24.560;2023-05-11T10:00:19;98594.25;;;16.16;30.35
45327;BME280;31062;49.678;24.560;2023-05-11T10:03:08;98699.22;;;16.85;29.86
45327;BME280;31062;49.678;24.560;2023-05-11T10:05:56;98700.78;;;16.76;29.90
45327;BME280;31062;49.678;24.560;2023-05-11T10:08:42;98696.66;;;16.89;30.26
45327;BME280;31062;49.678;24.560;2023-05-11T10:11:27;98731.22;;;17.05;29.54
45327;BME280;31062;49.678;24.560;2023-05-11T10:14:14;98585.63;;;16.12;29.56
45327;BME280;31062;49.678;24.560;2023-05-11T10:17:00;98739.00;;;17.18;29.81
45327;BME280;31062;49.678;24.560;2023-05-11T10:19:48;98762.75;;;17.17;29.65
45327;BME280;31062;49.678;24.560;2023-05-11T10:22:33;98740.72;;;17.23;30.52
45327;BME280;31062;49.678;24.560;2023-05-11T10:25:20;98569.09;;;16.16;29.07
45327;BME280;31062;49.678;24.560;2023-05-11T10:28:08;98754.22;;;17.38;29.76
45327;BME280;31062;49.678;24.560;2023-05-11T10:30:53;98695.41;;;17.15;29.39
45327;BME280;31062;49.678;24.560;2023-05-11T10:33:39;98725.13;;;17.20;30.79
45327;BME280;31062;49.678;24.560;2023-05-11T10:36:26;98512.91;;;15.88;29.65
45327;BME280;31062;49.678;24.560;2023-05-11T10:39:12;98715.34;;;17.44;29.36
45327;BME280;31062;49.678;24.560;2023-05-11T10:48:06;98749.94;;;17.49;30.11
45327;BME280;31062;49.678;24.560;2023-05-11T10:51:55;98714.13;;;17.47;29.61
45327;BME280;31062;49.678;24.560;2023-05-11T10:55:09;98720.94;;;17.44;30.02
45327;BME280;31062;49.678;24.560;2023-05-11T10:58:06;98717.03;;;17.49;31.26
45327;BME280;31062;49.678;24.560;2023-05-11T11:01:19;98559.84;;;16.48;30.71
45327;BME280;31062;49.678;24.560;2023-05-11T11:04:10;98741.38;;;17.59;29.99
45327;BME280;31062;49.678;24.560;2023-05-11T11:07:05;98643.06;;;17.06;29.77
45327;BME280;31062;49.678;24.560;2023-05-11T11:12:36;98684.81;;;17.25;29.84
45327;BME280;31062;49.678;24.560;2023-05-11T11:15:22;98545.72;;;16.34;30.08
45327;BME280;31062;49.678;24.560;2023-05-11T11:18:30;98581.03;;;16.63;29.55
45327;BME280;31062;49.678;24.560;2023-05-11T11:21:37;98723.38;;;17.62;30.59
45327;BME280;31062;49.678;24.560;2023-05-11T11:30:27;98552.56;;;16.66;30.16
45327;BME280;31062;49.678;24.560;2023-05-11T11:36:00;98579.16;;;16.91;29.23
45327;BME280;31062;49.678;24.560;2023-05-11T11:38:58;98667.94;;;17.48;29.64
45327;BME280;31062;49.678;24.560;2023-05-11T11:42:10;98722.06;;;17.88;29.84
45327;BME280;31062;49.678;24.560;2023-05-11T11:45:31;98715.28;;;17.79;30.00
45327;BME280;31062;49.678;24.560;2023-05-11T11:51:08;98687.38;;;17.58;30.95
45327;BME280;31062;49.678;24.560;2023-05-11T11:56:40;98719.22;;;17.63;30.96
45327;BME280;31062;49.678;24.560;2023-05-11T11:59:26;98706.31;;;17.58;30.66
45327;BME280;31062;49.678;24.560;2023-05-11T12:02:15;98707.78;;;17.47;30.88
45327;BME280;31062;49.678;24.560;2023-05-11T12:05:11;98658.66;;;17.09;29.80
45327;BME280;31062;49.678;24.560;2023-05-11T12:07:58;98531.63;;;16.21;29.99
45327;BME280;31062;49.678;24.560;2023-05-11T12:10:53;98705.16;;;17.26;30.79
45327;BME280;31062;49.678;24.560;2023-05-11T12:13:41;98566.41;;;16.29;31.16
45327;BME280;31062;49.678;24.560;2023-05-11T12:16:28;98696.38;;;17.31;30.55
45327;BME280;31062;49.678;24.560;2023-05-11T12:19:22;98611.06;;;16.86;31.37
45327;BME280;31062;49.678;24.560;2023-05-11T12:22:09;98637.22;;;17.02;30.00
45327;BME280;31062;49.678;24.560;2023-05-11T12:24:55;98557.06;;;16.48;30.10
45327;BME280;31062;49.678;24.560;2023-05-11T12:27:54;98703.84;;;17.52;30.91
45327;BME280;31062;49.678;24.560;2023-05-11T12:30:54;98539.91;;;16.65;32.31
45327;BME280;31062;49.678;24.560;2023-05-11T12:33:49;98534.03;;;16.73;31.38
45327;BME280;31062;49.678;24.560;2023-05-11T12:36:35;98668.41;;;17.57;30.80
45327;BME280;31062;49.678;24.560;2023-05-11T12:39:25;98524.75;;;16.82;30.79
45327;BME280;31062;49.678;24.560;2023-05-11T12:42:17;98608.78;;;17.31;30.64
45327;BME280;31062;49.678;24.560;2023-05-11T12:45:06;98642.91;;;17.64;30.95
45327;BME280;31062;49.678;24.560;2023-05-11T12:47:54;98689.66;;;17.85;30.24
45327;BME280;31062;49.678;24.560;2023-05-11T12:50:40;98653.31;;;17.50;30.32
45327;BME280;31062;49.678;24.560;2023-05-11T12:53:33;98676.50;;;17.76;30.91
45327;BME280;31062;49.678;24.560;2023-05-11T12:56:20;98663.16;;;17.63;30.48
45327;BME280;31062;49.678;24.560;2023-05-11T13:00:03;98524.22;;;16.60;30.64
45327;BME280;31062;49.678;24.560;2023-05-11T13:02:33;98610.50;;;17.24;31.16
45327;BME280;31062;49.678;24.560;2023-05-11T13:05:23;98546.44;;;16.82;31.31
45327;BME280;31062;49.678;24.560;2023-05-11T13:08:11;98620.84;;;17.33;31.70
45327;BME280;31062;49.678;24.560;2023-05-11T13:14:14;98624.97;;;17.32;31.23
45327;BME280;31062;49.678;24.560;2023-05-11T13:17:01;98521.16;;;16.45;31.54
45327;BME280;31062;49.678;24.560;2023-05-11T13:19:46;98669.78;;;17.44;30.83
45327;BME280;31062;49.678;24.560;2023-05-11T13:22:32;98562.28;;;16.65;32.10
45327;BME280;31062;49.678;24.560;2023-05-11T13:25:18;98634.75;;;17.20;31.64
45327;BME280;31062;49.678;24.560;2023-05-11T13:28:05;98646.91;;;17.24;31.84
45327;BME280;31062;49.678;24.560;2023-05-11T13:30:58;98654.34;;;17.31;31.47
45327;BME280;31062;49.678;24.560;2023-05-11T13:33:48;98521.06;;;16.31;31.39
45327;BME280;31062;49.678;24.560;2023-05-11T13:36:34;98519.72;;;16.32;31.39
45327;BME280;31062;49.678;24.560;2023-05-11T13:39:19;98655.66;;;17.30;31.55
45327;BME280;31062;49.678;24.560;2023-05-11T13:42:06;98634.91;;;17.10;31.71
45327;BME280;31062;49.678;24.560;2023-05-11T13:44:51;98650.69;;;17.17;31.64
45327;BME280;31062;49.678;24.560;2023-05-11T13:47:39;98656.66;;;17.23;31.92
45327;BME280;31062;49.678;24.560;2023-05-11T13:50:27;98599.53;;;16.80;31.30
45327;BME280;31062;49.678;24.560;2023-05-11T13:53:12;98526.75;;;16.33;31.80
45327;BME280;31062;49.678;24.560;2023-05-11T13:55:58;98465.50;;;15.90;31.80
45327;BME280;31062;49.678;24.560;2023-05-11T13:58:43;98648.16;;;17.21;32.22
45327;BME280;31062;49.678;24.560;2023-05-11T14:01:29;98466.22;;;16.03;31.65
45327;BME280;31062;49.678;24.560;2023-05-11T14:04:15;98578.69;;;16.83;31.90
45327;BME280;31062;49.678;24.560;2023-05-11T14:07:01;98641.50;;;17.40;32.13
45327;BME280;31062;49.678;24.560;2023-05-11T14:09:46;98515.56;;;16.56;32.06
45327;BME280;31062;49.678;24.560;2023-05-11T14:12:32;98630.75;;;17.48;32.30
45327;BME280;31062;49.678;24.560;2023-05-11T14:15:18;98667.16;;;17.60;31.48
45327;BME280;31062;49.678;24.560;2023-05-11T14:18:04;98541.78;;;16.98;31.02
45327;BME280;31062;49.678;24.560;2023-05-11T14:20:52;98664.13;;;17.67;31.00
45327;BME280;31062;49.678;24.560;2023-05-11T14:23:38;98559.50;;;17.14;30.48
45327;BME280;31062;49.678;24.560;2023-05-11T14:26:34;98629.97;;;17.59;31.31
45327;BME280;31062;49.678;24.560;2023-05-11T14:29:19;98647.06;;;17.63;31.45
45327;BME280;31062;49.678;24.560;2023-05-11T14:32:05;98612.31;;;17.31;31.09
45327;BME280;31062;49.678;24.560;2023-05-11T14:34:51;98587.03;;;17.06;30.88
45327;BME280;31062;49.678;24.560;2023-05-11T14:37:36;98500.72;;;16.42;31.53
45327;BME280;31062;49.678;24.560;2023-05-11T14:40:22;98636.88;;;17.44;30.81
45327;BME280;31062;49.678;24.560;2023-05-11T14:43:08;98489.06;;;16.34;31.32
45327;BME280;31062;49.678;24.560;2023-05-11T14:45:53;98645.53;;;17.37;31.32
45327;BME280;31062;49.678;24.560;2023-05-11T14:48:38;98637.91;;;17.26;31.63
45327;BME280;31062;49.678;24.560;2023-05-11T14:51:24;98623.56;;;17.08;31.61
45327;BME280;31062;49.678;24.560;2023-05-11T14:54:10;98627.19;;;17.22;31.54
45327;BME280;31062;49.678;24.560;2023-05-11T14:56:55;98628.19;;;17.15;31.84
45327;BME280;31062;49.678;24.560;2023-05-11T14:59:43;98623.31;;;17.16;32.09
45327;BME280;31062;49.678;24.560;2023-05-11T15:02:43;98652.03;;;17.16;32.46
45327;BME280;31062;49.678;24.560;2023-05-11T15:05:29;98585.41;;;16.54;32.38
45327;BME280;31062;49.678;24.560;2023-05-11T15:08:15;98529.69;;;16.35;32.35
45327;BME280;31062;49.678;24.560;2023-05-11T15:11:14;98502.22;;;16.08;31.90
45327;BME280;31062;49.678;24.560;2023-05-11T15:13:59;98606.94;;;16.75;31.86
45327;BME280;31062;49.678;24.560;2023-05-11T15:16:45;98458.69;;;15.82;32.13
45327;BME280;31062;49.678;24.560;2023-05-11T15:19:31;98472.66;;;15.93;31.70